sensor_id;sensor_type;location;lat;lon;timestamp;pressure;altitude;pressure_sealevel;temperature;humidity
49515;BME280;35415;47.870;16.058;2023-03-31T00:01:10;96977.50;;;8.70;99.75
49515;BME280;35415;47.870;16.058;2023-03-31T00:03:37;96978.03;;;8.67;99.72
49515;BME280;35415;47.870;16.058;2023-03-31T00:06:09;96975.88;;;8.59;99.81
49515;BME280;35415;47.870;16.058;2023-03-31T00:08:45;96983.59;;;8.50;99.95
49515;BME280;35415;47.870;16.058;2023-03-31T00:11:17;96989.50;;;8.52;100.00
49515;BME280;35415;47.870;16.058;2023-03-31T00:13:44;96962.56;;;8.27;100.00
49515;BME280;35415;47.870;16.058;2023-03-31T00:16:13;96951.75;;;8.11;100.00
49515;BME280;35415;47.870;16.058;2023-03-31T00:18:41;96932.13;;;8.01;100.00
49515;BME280;35415;47.870;16.058;2023-03-31T00:21:18;96984.00;;;8.27;100.00
49515;BME280;35415;47.870;16.058;2023-03-31T00:23:55;96953.84;;;8.04;100.00
49515;BME280;35415;47.870;16.058;2023-03-31T00:26:23;96953.84;;;8.04;100.00
49515;BME280;35415;47.870;16.058;2023-03-31T00:28:52;96971.31;;;8.12;100.00
49515;BME280;35415;47.870;16.058;2023-03-31T00:31:25;96975.34;;;8.14;100.00
49515;BME280;35415;47.870;16.058;2023-03-31T00:33:55;96932.28;;;7.84;100.00
49515;BME280;35415;47.870;16.058;2023-03-31T00:36:24;96936.56;;;7.85;100.00
49515;BME280;35415;47.870;16.058;2023-03-31T00:38:53;96972.03;;;8.02;100.00
49515;BME280;35415;47.870;16.058;2023-03-31T00:41:21;96957.25;;;7.90;100.00
49515;BME280;35415;47.870;16.058;2023-03-31T00:44:06;96880.88;;;7.40;100.00
49515;BME280;35415;47.870;16.058;2023-03-31T00:46:40;96952.09;;;7.83;100.00
49515;BME280;35415;47.870;16.058;2023-03-31T00:49:14;96979.47;;;7.90;100.00
49515;BME280;35415;47.870;16.058;2023-03-31T00:51:47;96954.09;;;7.66;100.00
49515;BME280;35415;47.870;16.058;2023-03-31T00:54:16;96975.13;;;7.84;100.00
49515;BME280;35415;47.870;16.058;2023-03-31T00:56:48;96915.97;;;7.48;100.00
49515;BME280;35415;47.870;16.058;2023-03-31T00:59:24;96947.41;;;7.63;100.00
49515;BME280;35415;47.870;16.058;2023-03-31T01:01:56;96953.00;;;7.62;100.00
49515;BME280;35415;47.870;16.058;2023-03-31T01:04:29;96967.22;;;7.67;100.00
49515;BME280;35415;47.870;16.058;2023-03-31T01:07:04;96906.47;;;7.31;100.00
49515;BME280;35415;47.870;16.058;2023-03-31T01:09:34;96968.81;;;7.63;100.00
49515;BME280;35415;47.870;16.058;2023-03-31T01:12:06;96949.97;;;7.48;100.00
49515;BME280;35415;47.870;16.058;2023-03-31T01:14:34;96931.38;;;7.36;100.00
49515;BME280;35415;47.870;16.058;2023-03-31T01:17:07;96959.88;;;7.52;100.00
49515;BME280;35415;47.870;16.058;2023-03-31T01:19:46;96932.63;;;7.23;100.00
49515;BME280;35415;47.870;16.058;2023-03-31T01:23:03;96970.59;;;7.52;100.00
49515;BME280;35415;47.870;16.058;2023-03-31T01:26:28;96958.19;;;7.41;100.00
49515;BME280;35415;47.870;16.058;2023-03-31T01:29:07;96950.59;;;7.28;100.00
49515;BME280;35415;47.870;16.058;2023-03-31T01:32:00;96965.63;;;7.34;100.00
49515;BME280;35415;47.870;16.058;2023-03-31T01:41:04;96959.47;;;7.34;100.00
49515;BME280;35415;47.870;16.058;2023-03-31T01:43:35;96951.59;;;7.22;100.00
49515;BME280;35415;47.870;16.058;2023-03-31T01:46:10;96954.78;;;7.19;100.00
49515;BME280;35415;47.870;16.058;2023-03-31T01:48:47;96918.97;;;6.93;100.00
49515;BME280;35415;47.870;16.058;2023-03-31T01:51:28;96919.25;;;6.97;100.00
49515;BME280;35415;47.870;16.058;2023-03-31T01:54:05;96936.41;;;7.01;100.00
49515;BME280;35415;47.870;16.058;2023-03-31T01:56:42;96907.56;;;6.76;100.00
49515;BME280;35415;47.870;16.058;2023-03-31T01:59:21;96913.81;;;6.86;100.00
49515;BME280;35415;47.870;16.058;2023-03-31T02:01:54;96911.59;;;6.78;100.00
49515;BME280;35415;47.870;16.058;2023-03-31T02:04:27;96897.06;;;6.69;100.00
49515;BME280;35415;47.870;16.058;2023-03-31T02:06:59;96928.59;;;6.94;100.00
49515;BME280;35415;47.870;16.058;2023-03-31T02:09:30;96935.16;;;7.08;100.00
49515;BME280;35415;47.870;16.058;2023-03-31T02:12:03;96897.72;;;6.81;100.00
49515;BME280;35415;47.870;16.058;2023-03-31T02:14:37;96926.78;;;7.00;100.00
49515;BME280;35415;47.870;16.058;2023-03-31T02:17:12;96896.81;;;6.71;100.00
49515;BME280;35415;47.870;16.058;2023-03-31T02:19:45;96902.81;;;6.83;100.00
49515;BME280;35415;47.870;16.058;2023-03-31T02:22:14;96864.81;;;6.54;100.00
49515;BME280;35415;47.870;16.058;2023-03-31T02:24:45;96912.53;;;6.89;100.00
49515;BME280;35415;47.870;16.058;2023-03-31T02:27:19;96896.91;;;6.81;100.00
49515;BME280;35415;47.870;16.058;2023-03-31T02:29:49;96867.56;;;6.59;100.00
49515;BME280;35415;47.870;16.058;2023-03-31T02:32:21;96860.06;;;6.56;100.00
49515;BME280;35415;47.870;16.058;2023-03-31T02:34:49;96870.59;;;6.68;100.00
49515;BME280;35415;47.870;16.058;2023-03-31T02:37:17;96894.78;;;6.83;100.00
49515;BME280;35415;47.870;16.058;2023-03-31T02:39:46;96857.63;;;6.54;100.00
49515;BME280;35415;47.870;16.058;2023-03-31T02:42:17;96830.38;;;6.30;100.00
49515;BME280;35415;47.870;16.058;2023-03-31T02:44:45;96888.78;;;6.71;100.00
49515;BME280;35415;47.870;16.058;2023-03-31T02:47:14;96901.41;;;6.75;100.00
49515;BME280;35415;47.870;16.058;2023-03-31T02:49:48;96889.00;;;6.64;100.00
49515;BME280;35415;47.870;16.058;2023-03-31T02:52:43;96889.25;;;6.62;100.00
49515;BME280;35415;47.870;16.058;2023-03-31T02:55:27;96905.88;;;6.70;100.00
49515;BME280;35415;47.870;16.058;2023-03-31T02:58:11;96865.72;;;6.38;100.00
49515;BME280;35415;47.870;16.058;2023-03-31T03:00:53;96862.06;;;6.44;100.00
49515;BME280;35415;47.870;16.058;2023-03-31T03:03:36;96861.25;;;6.43;100.00
49515;BME280;35415;47.870;16.058;2023-03-31T03:06:17;96885.72;;;6.57;100.00
49515;BME280;35415;47.870;16.058;2023-03-31T03:09:02;96852.31;;;6.32;100.00
49515;BME280;35415;47.870;16.058;2023-03-31T03:11:32;96882.78;;;6.58;100.00
49515;BME280;35415;47.870;16.058;2023-03-31T03:14:11;96863.03;;;6.38;100.00
49515;BME280;35415;47.870;16.058;2023-03-31T03:16:46;96853.06;;;6.28;100.00
49515;BME280;35415;47.870;16.058;2023-03-31T03:19:19;96853.31;;;6.26;100.00
49515;BME280;35415;47.870;16.058;2023-03-31T03:21:48;96834.44;;;6.11;100.00
49515;BME280;35415;47.870;16.058;2023-03-31T03:24:15;96845.69;;;6.13;100.00
49515;BME280;35415;47.870;16.058;2023-03-31T03:26:47;96810.75;;;5.93;100.00
49515;BME280;35415;47.870;16.058;2023-03-31T03:29:16;96865.56;;;6.22;100.00
49515;BME280;35415;47.870;16.058;2023-03-31T03:31:43;96864.97;;;6.20;100.00
49515;BME280;35415;47.870;16.058;2023-03-31T03:34:11;96853.00;;;6.01;100.00
49515;BME280;35415;47.870;16.058;2023-03-31T03:36:39;96835.25;;;5.90;100.00
49515;BME280;35415;47.870;16.058;2023-03-31T03:39:07;96856.72;;;6.00;100.00
49515;BME280;35415;47.870;16.058;2023-03-31T03:41:34;96842.66;;;5.88;100.00
49515;BME280;35415;47.870;16.058;2023-03-31T03:44:04;96839.19;;;5.87;100.00
49515;BME280;35415;47.870;16.058;2023-03-31T03:46:32;96860.41;;;5.94;100.00
49515;BME280;35415;47.870;16.058;2023-03-31T03:49:00;96849.53;;;5.84;100.00
49515;BME280;35415;47.870;16.058;2023-03-31T03:51:28;96854.31;;;5.82;100.00
49515;BME280;35415;47.870;16.058;2023-03-31T03:53:56;96860.22;;;5.84;100.00
49515;BME280;35415;47.870;16.058;2023-03-31T03:56:23;96838.41;;;5.70;100.00
49515;BME280;35415;47.870;16.058;2023-03-31T03:58:52;96856.19;;;5.81;100.00
49515;BME280;35415;47.870;16.058;2023-03-31T04:01:24;96858.31;;;5.79;100.00
49515;BME280;35415;47.870;16.058;2023-03-31T04:03:54;96862.03;;;5.78;100.00
49515;BME280;35415;47.870;16.058;2023-03-31T04:06:22;96791.22;;;5.32;100.00
49515;BME280;35415;47.870;16.058;2023-03-31T04:08:51;96811.59;;;5.38;100.00
49515;BME280;35415;47.870;16.058;2023-03-31T04:11:22;96833.56;;;5.45;100.00
49515;BME280;35415;47.870;16.058;2023-03-31T04:13:52;96849.22;;;5.58;100.00
49515;BME280;35415;47.870;16.058;2023-03-31T04:16:19;96830.09;;;5.44;100.00
49515;BME280;35415;47.870;16.058;2023-03-31T04:18:47;96817.97;;;5.37;100.00
49515;BME280;35415;47.870;16.058;2023-03-31T04:21:23;96846.25;;;5.55;100.00
49515;BME280;35415;47.870;16.058;2023-03-31T04:23:53;96840.25;;;5.48;100.00
49515;BME280;35415;47.870;16.058;2023-03-31T04:26:27;96833.31;;;5.47;100.00
49515;BME280;35415;47.870;16.058;2023-03-31T04:29:05;96786.16;;;5.13;100.00
49515;BME280;35415;47.870;16.058;2023-03-31T04:31:33;96807.78;;;5.34;100.00
49515;BME280;35415;47.870;16.058;2023-03-31T04:34:03;96826.06;;;5.42;100.00
49515;BME280;35415;47.870;16.058;2023-03-31T04:36:40;96820.06;;;5.35;100.00
49515;BME280;35415;47.870;16.058;2023-03-31T04:39:12;96819.34;;;5.39;100.00
49515;BME280;35415;47.870;16.058;2023-03-31T04:41:42;96815.88;;;5.39;100.00
49515;BME280;35415;47.870;16.058;2023-03-31T04:44:10;96779.47;;;5.11;100.00
49515;BME280;35415;47.870;16.058;2023-03-31T04:46:37;96793.59;;;5.11;100.00
49515;BME280;35415;47.870;16.058;2023-03-31T04:49:05;96808.22;;;5.26;100.00
49515;BME280;35415;47.870;16.058;2023-03-31T04:51:32;96817.25;;;5.25;100.00
49515;BME280;35415;47.870;16.058;2023-03-31T04:54:01;96824.69;;;5.23;100.00
49515;BME280;35415;47.870;16.058;2023-03-31T04:56:28;96814.50;;;5.20;100.00
49515;BME280;35415;47.870;16.058;2023-03-31T04:58:59;96794.84;;;5.04;100.00
49515;BME280;35415;47.870;16.058;2023-03-31T05:01:28;96800.78;;;5.11;100.00
49515;BME280;35415;47.870;16.058;2023-03-31T05:04:03;96751.06;;;4.83;100.00
49515;BME280;35415;47.870;16.058;2023-03-31T05:06:32;96764.47;;;4.88;100.00
49515;BME280;35415;47.870;16.058;2023-03-31T05:09:01;96795.41;;;5.06;100.00
49515;BME280;35415;47.870;16.058;2023-03-31T05:11:29;96775.53;;;4.97;100.00
49515;BME280;35415;47.870;16.058;2023-03-31T05:13:57;96797.25;;;5.05;100.00
49515;BME280;35415;47.870;16.058;2023-03-31T05:16:25;96789.97;;;5.01;100.00
49515;BME280;35415;47.870;16.058;2023-03-31T05:18:53;96788.75;;;5.08;100.00
49515;BME280;35415;47.870;16.058;2023-03-31T05:21:20;96745.91;;;4.76;100.00
49515;BME280;35415;47.870;16.058;2023-03-31T05:23:51;96786.34;;;5.07;100.00
49515;BME280;35415;47.870;16.058;2023-03-31T05:26:20;96724.97;;;4.68;100.00
49515;BME280;35415;47.870;16.058;2023-03-31T05:28:52;96773.97;;;5.01;100.00
49515;BME280;35415;47.870;16.058;2023-03-31T05:31:19;96740.16;;;4.84;100.00
49515;BME280;35415;47.870;16.058;2023-03-31T05:33:47;96752.03;;;4.94;100.00
49515;BME280;35415;47.870;16.058;2023-03-31T05:36:17;96768.81;;;5.11;100.00
49515;BME280;35415;47.870;16.058;2023-03-31T05:38:45;96759.75;;;5.12;100.00
49515;BME280;35415;47.870;16.058;2023-03-31T05:41:12;96762.72;;;5.16;100.00
49515;BME280;35415;47.870;16.058;2023-03-31T05:43:42;96752.97;;;5.21;100.00
49515;BME280;35415;47.870;16.058;2023-03-31T05:46:10;96740.50;;;5.27;100.00
49515;BME280;35415;47.870;16.058;2023-03-31T05:48:38;96745.59;;;5.28;100.00
49515;BME280;35415;47.870;16.058;2023-03-31T05:51:06;96734.97;;;5.33;100.00
49515;BME280;35415;47.870;16.058;2023-03-31T05:53:33;96735.78;;;5.34;100.00
49515;BME280;35415;47.870;16.058;2023-03-31T05:56:02;96736.09;;;5.37;100.00
49515;BME280;35415;47.870;16.058;2023-03-31T05:58:32;96729.22;;;5.41;100.00
49515;BME280;35415;47.870;16.058;2023-03-31T06:01:03;96659.19;;;5.07;100.00
49515;BME280;35415;47.870;16.058;2023-03-31T06:03:44;96699.34;;;5.39;100.00
49515;BME280;35415;47.870;16.058;2023-03-31T06:06:12;96678.41;;;5.31;100.00
49515;BME280;35415;47.870;16.058;2023-03-31T06:08:40;96705.31;;;5.52;100.00
49515;BME280;35415;47.870;16.058;2023-03-31T06:11:10;96682.31;;;5.46;100.00
49515;BME280;35415;47.870;16.058;2023-03-31T06:13:38;96686.41;;;5.53;100.00
49515;BME280;35415;47.870;16.058;2023-03-31T06:16:11;96688.16;;;5.64;100.00
49515;BME280;35415;47.870;16.058;2023-03-31T06:18:39;96712.06;;;5.81;100.00
49515;BME280;35415;47.870;16.058;2023-03-31T06:21:07;96712.94;;;5.87;100.00
49515;BME280;35415;47.870;16.058;2023-03-31T06:23:36;96709.56;;;5.91;100.00
49515;BME280;35415;47.870;16.058;2023-03-31T06:26:06;96668.97;;;5.67;100.00
49515;BME280;35415;47.870;16.058;2023-03-31T06:28:36;96701.09;;;5.99;100.00
49515;BME280;35415;47.870;16.058;2023-03-31T06:31:05;96695.41;;;5.91;100.00
49515;BME280;35415;47.870;16.058;2023-03-31T06:33:35;96675.34;;;5.88;100.00
49515;BME280;35415;47.870;16.058;2023-03-31T06:36:05;96690.44;;;6.04;100.00
49515;BME280;35415;47.870;16.058;2023-03-31T06:38:33;96654.97;;;5.82;100.00
49515;BME280;35415;47.870;16.058;2023-03-31T06:41:01;96659.13;;;5.95;100.00
49515;BME280;35415;47.870;16.058;2023-03-31T06:43:29;96675.34;;;6.15;100.00
49515;BME280;35415;47.870;16.058;2023-03-31T06:45:56;96640.19;;;5.96;100.00
49515;BME280;35415;47.870;16.058;2023-03-31T06:48:26;96670.63;;;6.22;100.00
49515;BME280;35415;47.870;16.058;2023-03-31T06:50:58;96663.69;;;6.26;100.00
49515;BME280;35415;47.870;16.058;2023-03-31T06:53:26;96598.25;;;5.92;100.00
49515;BME280;35415;47.870;16.058;2023-03-31T06:55:53;96599.09;;;5.97;100.00
49515;BME280;35415;47.870;16.058;2023-03-31T06:58:21;96566.72;;;5.89;100.00
49515;BME280;35415;47.870;16.058;2023-03-31T07:00:48;96580.44;;;6.02;100.00
49515;BME280;35415;47.870;16.058;2023-03-31T07:03:16;96635.28;;;6.47;100.00
49515;BME280;35415;47.870;16.058;2023-03-31T07:05:48;96632.72;;;6.62;100.00
49515;BME280;35415;47.870;16.058;2023-03-31T07:08:18;96632.22;;;6.71;100.00
49515;BME280;35415;47.870;16.058;2023-03-31T07:10:46;96608.41;;;6.64;100.00
49515;BME280;35415;47.870;16.058;2023-03-31T07:13:15;96591.56;;;6.63;100.00
49515;BME280;35415;47.870;16.058;2023-03-31T07:15:43;96615.50;;;6.90;100.00
49515;BME280;35415;47.870;16.058;2023-03-31T07:18:10;96568.34;;;6.69;100.00
49515;BME280;35415;47.870;16.058;2023-03-31T07:20:40;96604.84;;;7.01;100.00
49515;BME280;35415;47.870;16.058;2023-03-31T07:23:08;96609.44;;;7.10;100.00
49515;BME280;35415;47.870;16.058;2023-03-31T07:25:37;96546.75;;;6.86;100.00
49515;BME280;35415;47.870;16.058;2023-03-31T07:28:04;96517.06;;;6.77;100.00
49515;BME280;35415;47.870;16.058;2023-03-31T07:30:34;96547.63;;;6.97;100.00
49515;BME280;35415;47.870;16.058;2023-03-31T07:33:01;96580.09;;;7.26;100.00
49515;BME280;35415;47.870;16.058;2023-03-31T07:35:32;96532.69;;;7.06;100.00
49515;BME280;35415;47.870;16.058;2023-03-31T07:37:59;96591.91;;;7.45;100.00
49515;BME280;35415;47.870;16.058;2023-03-31T07:40:28;96516.38;;;7.12;100.00
49515;BME280;35415;47.870;16.058;2023-03-31T07:42:57;96527.13;;;7.33;100.00
49515;BME280;35415;47.870;16.058;2023-03-31T07:45:25;96555.25;;;7.55;100.00
49515;BME280;35415;47.870;16.058;2023-03-31T07:47:53;96567.59;;;7.67;100.00
49515;BME280;35415;47.870;16.058;2023-03-31T07:50:23;96467.19;;;7.08;100.00
49515;BME280;35415;47.870;16.058;2023-03-31T07:52:51;96502.28;;;7.47;100.00
49515;BME280;35415;47.870;16.058;2023-03-31T07:55:19;96546.72;;;7.84;100.00
49515;BME280;35415;47.870;16.058;2023-03-31T07:57:51;96549.94;;;7.96;100.00
49515;BME280;35415;47.870;16.058;2023-03-31T08:00:21;96523.16;;;7.86;100.00
49515;BME280;35415;47.870;16.058;2023-03-31T08:02:49;96534.94;;;8.05;100.00
49515;BME280;35415;47.870;16.058;2023-03-31T08:05:18;96528.78;;;8.10;100.00
49515;BME280;35415;47.870;16.058;2023-03-31T08:07:48;96541.63;;;8.28;100.00
49515;BME280;35415;47.870;16.058;2023-03-31T08:10:21;96533.84;;;8.37;100.00
49515;BME280;35415;47.870;16.058;2023-03-31T08:12:48;96476.31;;;8.09;100.00
49515;BME280;35415;47.870;16.058;2023-03-31T08:15:16;96533.03;;;8.52;100.00
49515;BME280;35415;47.870;16.058;2023-03-31T08:17:46;96513.44;;;8.56;100.00
49515;BME280;35415;47.870;16.058;2023-03-31T08:20:13;96525.50;;;8.64;100.00
49515;BME280;35415;47.870;16.058;2023-03-31T08:22:41;96463.38;;;8.36;100.00
49515;BME280;35415;47.870;16.058;2023-03-31T08:25:08;96463.91;;;8.43;100.00
49515;BME280;35415;47.870;16.058;2023-03-31T08:27:37;96508.81;;;8.82;100.00
49515;BME280;35415;47.870;16.058;2023-03-31T08:30:06;96510.09;;;8.90;100.00
49515;BME280;35415;47.870;16.058;2023-03-31T08:32:35;96498.56;;;8.94;100.00
49515;BME280;35415;47.870;16.058;2023-03-31T08:35:05;96477.66;;;8.91;100.00
49515;BME280;35415;47.870;16.058;2023-03-31T08:37:34;96479.25;;;8.97;100.00
49515;BME280;35415;47.870;16.058;2023-03-31T08:40:02;96479.44;;;9.11;100.00
49515;BME280;35415;47.870;16.058;2023-03-31T08:42:36;96479.13;;;9.18;100.00
49515;BME280;35415;47.870;16.058;2023-03-31T08:45:10;96464.06;;;9.22;100.00
49515;BME280;35415;47.870;16.058;2023-03-31T08:47:42;96425.84;;;9.01;100.00
49515;BME280;35415;47.870;16.058;2023-03-31T08:50:14;96447.97;;;9.22;100.00
49515;BME280;35415;47.870;16.058;2023-03-31T08:52:49;96446.03;;;9.32;100.00
49515;BME280;35415;47.870;16.058;2023-03-31T08:55:22;96411.06;;;9.09;100.00
49515;BME280;35415;47.870;16.058;2023-03-31T08:57:57;96438.72;;;9.38;100.00
49515;BME280;35415;47.870;16.058;2023-03-31T09:00:34;96431.75;;;9.37;100.00
49515;BME280;35415;47.870;16.058;2023-03-31T09:03:07;96436.22;;;9.52;100.00
49515;BME280;35415;47.870;16.058;2023-03-31T09:05:58;96438.59;;;9.58;100.00
49515;BME280;35415;47.870;16.058;2023-03-31T09:08:33;96438.84;;;9.57;100.00
49515;BME280;35415;47.870;16.058;2023-03-31T09:11:07;96406.69;;;9.52;100.00
49515;BME280;35415;47.870;16.058;2023-03-31T09:13:55;96405.53;;;9.63;100.00
49515;BME280;35415;47.870;16.058;2023-03-31T09:16:25;96391.75;;;9.70;100.00
49515;BME280;35415;47.870;16.058;2023-03-31T09:18:59;96379.09;;;9.75;100.00
49515;BME280;35415;47.870;16.058;2023-03-31T09:21:31;96297.41;;;9.28;100.00
49515;BME280;35415;47.870;16.058;2023-03-31T09:24:05;96289.22;;;9.44;100.00
49515;BME280;35415;47.870;16.058;2023-03-31T09:26:38;96306.19;;;9.63;100.00
49515;BME280;35415;47.870;16.058;2023-03-31T09:29:13;96274.19;;;9.43;100.00
49515;BME280;35415;47.870;16.058;2023-03-31T09:31:44;96335.91;;;9.95;100.00
49515;BME280;35415;47.870;16.058;2023-03-31T09:34:14;96247.50;;;9.51;100.00
49515;BME280;35415;47.870;16.058;2023-03-31T09:36:51;96298.81;;;9.98;100.00
49515;BME280;35415;47.870;16.058;2023-03-31T09:39:19;96316.81;;;10.21;100.00
49515;BME280;35415;47.870;16.058;2023-03-31T09:41:49;96309.59;;;10.16;100.00
49515;BME280;35415;47.870;16.058;2023-03-31T09:44:23;96290.00;;;10.16;100.00
49515;BME280;35415;47.870;16.058;2023-03-31T09:46:54;96315.25;;;10.39;100.00
49515;BME280;35415;47.870;16.058;2023-03-31T09:49:25;96218.06;;;9.89;100.00
49515;BME280;35415;47.870;16.058;2023-03-31T09:52:04;96251.50;;;10.20;100.00
49515;BME280;35415;47.870;16.058;2023-03-31T09:54:37;96313.25;;;10.68;100.00
49515;BME280;35415;47.870;16.058;2023-03-31T09:57:13;96256.47;;;10.32;100.00
49515;BME280;35415;47.870;16.058;2023-03-31T09:59:41;96252.50;;;10.48;100.00
49515;BME280;35415;47.870;16.058;2023-03-31T10:05:18;96281.31;;;10.80;99.14
49515;BME280;35415;47.870;16.058;2023-03-31T10:07:49;96283.03;;;10.90;98.06
49515;BME280;35415;47.870;16.058;2023-03-31T10:10:25;96288.19;;;11.05;97.55
49515;BME280;35415;47.870;16.058;2023-03-31T10:12:55;96284.41;;;11.06;96.50
49515;BME280;35415;47.870;16.058;2023-03-31T10:15:25;96233.63;;;10.86;96.01
49515;BME280;35415;47.870;16.058;2023-03-31T10:17:57;96224.25;;;10.83;95.84
49515;BME280;35415;47.870;16.058;2023-03-31T10:20:36;96239.34;;;10.98;95.38
49515;BME280;35415;47.870;16.058;2023-03-31T10:23:15;96271.41;;;11.27;94.85
49515;BME280;35415;47.870;16.058;2023-03-31T10:25:43;96206.13;;;10.89;94.97
49515;BME280;35415;47.870;16.058;2023-03-31T10:28:15;96243.56;;;11.18;94.99
49515;BME280;35415;47.870;16.058;2023-03-31T10:30:47;96213.03;;;10.95;95.25
49515;BME280;35415;47.870;16.058;2023-03-31T10:33:18;96192.00;;;10.97;95.35
49515;BME280;35415;47.870;16.058;2023-03-31T10:35:47;96267.38;;;11.43;95.39
49515;BME280;35415;47.870;16.058;2023-03-31T10:38:24;96264.28;;;11.50;94.79
49515;BME280;35415;47.870;16.058;2023-03-31T10:40:54;96228.25;;;11.32;95.43
49515;BME280;35415;47.870;16.058;2023-03-31T10:43:25;96228.56;;;11.31;93.97
49515;BME280;35415;47.870;16.058;2023-03-31T10:45:55;96266.16;;;11.50;93.40
49515;BME280;35415;47.870;16.058;2023-03-31T10:48:25;96277.56;;;11.60;94.91
49515;BME280;35415;47.870;16.058;2023-03-31T10:50:53;96292.31;;;11.63;94.89
49515;BME280;35415;47.870;16.058;2023-03-31T10:53:23;96296.31;;;11.65;94.53
49515;BME280;35415;47.870;16.058;2023-03-31T10:55:58;96282.72;;;11.57;94.02
49515;BME280;35415;47.870;16.058;2023-03-31T10:58:38;96258.09;;;11.50;93.82
49515;BME280;35415;47.870;16.058;2023-03-31T11:01:20;96276.75;;;11.60;94.77
49515;BME280;35415;47.870;16.058;2023-03-31T11:03:56;96279.16;;;11.61;94.83
49515;BME280;35415;47.870;16.058;2023-03-31T11:06:44;96303.66;;;11.79;94.86
49515;BME280;35415;47.870;16.058;2023-03-31T11:09:31;96312.22;;;11.81;94.75
49515;BME280;35415;47.870;16.058;2023-03-31T11:12:09;96252.50;;;11.46;95.07
49515;BME280;35415;47.870;16.058;2023-03-31T11:14:59;96294.66;;;11.83;95.29
49515;BME280;35415;47.870;16.058;2023-03-31T11:17:34;96295.84;;;11.91;95.37
49515;BME280;35415;47.870;16.058;2023-03-31T11:20:14;96280.09;;;11.84;95.34
49515;BME280;35415;47.870;16.058;2023-03-31T11:22:53;96216.91;;;11.49;95.43
49515;BME280;35415;47.870;16.058;2023-03-31T11:25:33;96258.91;;;11.91;95.12
49515;BME280;35415;47.870;16.058;2023-03-31T11:28:19;96223.88;;;11.91;95.64
49515;BME280;35415;47.870;16.058;2023-03-31T11:30:53;96232.06;;;12.00;94.95
49515;BME280;35415;47.870;16.058;2023-03-31T11:33:39;96175.19;;;11.74;95.88
49515;BME280;35415;47.870;16.058;2023-03-31T11:36:20;96204.41;;;12.08;94.98
49515;BME280;35415;47.870;16.058;2023-03-31T11:39:00;96172.97;;;12.03;95.54
49515;BME280;35415;47.870;16.058;2023-03-31T11:41:37;96176.34;;;12.09;95.33
49515;BME280;35415;47.870;16.058;2023-03-31T11:44:10;96158.00;;;12.11;96.07
49515;BME280;35415;47.870;16.058;2023-03-31T11:46:43;96143.28;;;12.17;95.83
49515;BME280;35415;47.870;16.058;2023-03-31T11:49:19;96154.34;;;12.29;95.00
49515;BME280;35415;47.870;16.058;2023-03-31T11:51:52;96162.88;;;12.45;95.98
49515;BME280;35415;47.870;16.058;2023-03-31T11:54:27;96140.81;;;12.43;95.90
49515;BME280;35415;47.870;16.058;2023-03-31T11:57:05;96133.50;;;12.44;95.42
49515;BME280;35415;47.870;16.058;2023-03-31T11:59:46;96141.09;;;12.64;95.45
49515;BME280;35415;47.870;16.058;2023-03-31T12:02:18;96131.91;;;12.65;96.12
49515;BME280;35415;47.870;16.058;2023-03-31T12:04:53;96140.25;;;12.77;95.84
49515;BME280;35415;47.870;16.058;2023-03-31T12:07:25;96118.44;;;12.74;96.56
49515;BME280;35415;47.870;16.058;2023-03-31T12:10:02;96107.34;;;12.75;95.87
49515;BME280;35415;47.870;16.058;2023-03-31T12:12:36;96089.16;;;12.58;94.57
49515;BME280;35415;47.870;16.058;2023-03-31T12:15:13;96087.63;;;12.66;95.20
49515;BME280;35415;47.870;16.058;2023-03-31T12:17:44;96086.56;;;12.76;95.46
49515;BME280;35415;47.870;16.058;2023-03-31T12:20:22;96155.44;;;13.04;94.91
49515;BME280;35415;47.870;16.058;2023-03-31T12:22:53;96091.59;;;12.69;92.85
49515;BME280;35415;47.870;16.058;2023-03-31T12:25:24;96129.09;;;13.01;92.93
49515;BME280;35415;47.870;16.058;2023-03-31T12:27:57;96143.53;;;13.05;89.84
49515;BME280;35415;47.870;16.058;2023-03-31T12:30:32;96142.28;;;13.03;91.22
49515;BME280;35415;47.870;16.058;2023-03-31T12:33:06;96085.25;;;12.64;92.95
49515;BME280;35415;47.870;16.058;2023-03-31T12:35:44;96119.72;;;12.99;93.41
49515;BME280;35415;47.870;16.058;2023-03-31T12:38:28;96089.47;;;12.79;94.25
49515;BME280;35415;47.870;16.058;2023-03-31T12:41:07;96092.19;;;12.88;93.36
49515;BME280;35415;47.870;16.058;2023-03-31T12:47:03;96128.00;;;13.42;91.04
49515;BME280;35415;47.870;16.058;2023-03-31T12:49:59;96104.03;;;13.49;92.34
49515;BME280;35415;47.870;16.058;2023-03-31T12:52:36;96115.19;;;13.65;88.96
49515;BME280;35415;47.870;16.058;2023-03-31T12:55:20;96095.34;;;13.69;90.30
49515;BME280;35415;47.870;16.058;2023-03-31T12:57:50;96085.97;;;13.93;89.40
49515;BME280;35415;47.870;16.058;2023-03-31T13:00:26;96069.47;;;13.94;90.14
49515;BME280;35415;47.870;16.058;2023-03-31T13:03:37;96070.22;;;14.21;89.89
49515;BME280;35415;47.870;16.058;2023-03-31T13:06:09;96036.66;;;14.30;89.99
49515;BME280;35415;47.870;16.058;2023-03-31T13:08:54;96057.00;;;14.62;90.44
49515;BME280;35415;47.870;16.058;2023-03-31T13:11:35;96027.22;;;14.62;90.44
49515;BME280;35415;47.870;16.058;2023-03-31T13:14:05;95998.88;;;14.60;78.30
49515;BME280;35415;47.870;16.058;2023-03-31T13:16:34;96010.66;;;15.02;80.82
49515;BME280;35415;47.870;16.058;2023-03-31T13:19:03;96038.22;;;15.33;76.70
49515;BME280;35415;47.870;16.058;2023-03-31T13:21:51;96040.81;;;15.51;79.86
49515;BME280;35415;47.870;16.058;2023-03-31T13:24:21;96023.56;;;15.55;67.75
49515;BME280;35415;47.870;16.058;2023-03-31T13:26:49;96032.06;;;15.75;65.39
49515;BME280;35415;47.870;16.058;2023-03-31T13:29:21;96020.38;;;15.83;63.99
49515;BME280;35415;47.870;16.058;2023-03-31T13:34:58;95997.41;;;16.01;60.87